createdAt,value
2016-11-22T00:00:14.189Z,18.84
2016-11-22T00:01:13.785Z,18.82
2016-11-22T00:02:12.468Z,18.83
2016-11-22T00:03:12.345Z,18.83
2016-11-22T00:04:12.646Z,18.90
2016-11-22T00:05:11.773Z,18.82
2016-11-22T00:06:12.354Z,18.84
2016-11-22T00:07:12.545Z,18.83
2016-11-22T00:08:15.385Z,18.84
2016-11-22T00:09:12.424Z,18.83
2016-11-22T00:10:13.739Z,18.83
2016-11-22T00:11:12.244Z,18.82
2016-11-22T00:12:12.345Z,18.83
2016-11-22T00:13:13.203Z,18.82
2016-11-22T00:14:12.176Z,18.82
2016-11-22T00:15:12.061Z,18.83
2016-11-22T00:16:13.805Z,18.82
2016-11-22T00:17:12.332Z,18.86
2016-11-22T00:18:12.521Z,18.82
2016-11-22T00:19:12.533Z,18.82
2016-11-22T00:20:13.223Z,18.82
2016-11-22T00:21:12.925Z,18.82
2016-11-22T00:22:12.069Z,18.83
2016-11-22T00:23:12.040Z,18.82
2016-11-22T00:24:12.115Z,18.83
2016-11-22T00:25:13.796Z,18.83
2016-11-22T00:26:12.397Z,18.83
2016-11-22T00:27:12.316Z,18.84
2016-11-22T00:28:13.088Z,18.84
2016-11-22T00:29:12.255Z,18.84
2016-11-22T00:30:14.072Z,18.83
2016-11-22T00:31:13.012Z,18.84
2016-11-22T00:32:09.246Z,18.83
2016-11-22T00:33:11.699Z,18.84
2016-11-22T00:34:11.833Z,18.84
2016-11-22T00:35:11.748Z,18.84
2016-11-22T00:36:10.528Z,18.83
2016-11-22T00:37:10.532Z,18.83
2016-11-22T00:38:12.535Z,19.37
2016-11-22T00:39:12.582Z,19.41
2016-11-22T00:40:14.310Z,19.44
2016-11-22T00:41:12.853Z,19.45
2016-11-22T00:42:12.625Z,19.46
2016-11-22T00:43:12.450Z,19.15
2016-11-22T00:44:12.984Z,18.94
2016-11-22T00:45:13.531Z,18.88
2016-11-22T00:46:11.099Z,18.85
2016-11-22T00:47:12.908Z,19.37
2016-11-22T00:48:11.950Z,18.91
2016-11-22T00:49:12.654Z,18.86
2016-11-22T00:50:11.865Z,18.86
2016-11-22T00:51:12.745Z,18.85
2016-11-22T00:52:12.029Z,18.84
2016-11-22T00:53:12.536Z,18.84
2016-11-22T00:54:13.172Z,18.84
2016-11-22T00:55:12.718Z,18.84
2016-11-22T00:56:12.225Z,18.88
2016-11-22T00:57:12.737Z,18.83
2016-11-22T00:58:12.450Z,18.83
2016-11-22T00:59:12.368Z,18.83
2016-11-22T01:00:12.665Z,18.83
2016-11-22T01:01:11.574Z,18.81
2016-11-22T01:02:13.611Z,18.83
2016-11-22T01:03:13.281Z,18.84
2016-11-22T01:04:12.321Z,18.83
2016-11-22T01:05:13.754Z,18.83
2016-11-22T01:06:12.832Z,18.88
2016-11-22T01:07:13.700Z,18.83
2016-11-22T01:08:14.778Z,18.84
2016-11-22T01:09:12.414Z,18.83
2016-11-22T01:10:12.295Z,18.84
2016-11-22T01:11:12.686Z,18.84
2016-11-22T01:12:12.821Z,18.85
2016-11-22T01:13:13.565Z,18.85
2016-11-22T01:14:11.604Z,18.82
2016-11-22T01:15:13.019Z,18.84
2016-11-22T01:16:10.769Z,18.82
2016-11-22T01:17:14.556Z,18.83
2016-11-22T01:18:12.474Z,18.83
2016-11-22T01:19:13.389Z,18.83
2016-11-22T01:20:12.575Z,18.83
2016-11-22T01:21:13.554Z,18.82
2016-11-22T01:22:12.982Z,18.83
2016-11-22T01:23:13.151Z,18.82
2016-11-22T01:24:13.098Z,18.87
2016-11-22T01:25:13.347Z,18.82
2016-11-22T01:26:11.954Z,18.82
2016-11-22T01:27:13.062Z,18.89
2016-11-22T01:28:12.164Z,18.83
2016-11-22T01:29:12.436Z,18.83
2016-11-22T01:30:14.170Z,18.83
2016-11-22T01:31:12.526Z,18.86
2016-11-22T01:32:14.204Z,18.82
2016-11-22T01:33:12.672Z,18.84
2016-11-22T01:34:11.895Z,18.82
2016-11-22T01:35:10.692Z,18.82
2016-11-22T01:36:13.716Z,18.83
2016-11-22T01:37:13.099Z,18.83
2016-11-22T01:38:12.685Z,18.83
2016-11-22T01:39:12.536Z,18.83
2016-11-22T01:40:13.493Z,18.82
2016-11-22T01:41:14.135Z,18.82
2016-11-22T01:42:12.644Z,18.83
2016-11-22T01:43:12.461Z,18.86
2016-11-22T01:44:13.901Z,18.84
2016-11-22T01:45:12.970Z,18.83
2016-11-22T01:46:13.496Z,18.83
2016-11-22T01:47:13.084Z,18.83
2016-11-22T01:48:12.696Z,18.83
2016-11-22T01:49:12.608Z,18.83
2016-11-22T01:50:12.298Z,18.83
2016-11-22T01:51:12.984Z,18.83
2016-11-22T01:52:13.358Z,18.83
2016-11-22T01:53:11.116Z,18.83
2016-11-22T01:54:12.137Z,18.84
2016-11-22T01:55:12.100Z,18.82
2016-11-22T01:56:16.746Z,18.83
2016-11-22T01:57:12.724Z,18.84
2016-11-22T01:58:12.443Z,18.83
2016-11-22T01:59:12.536Z,18.83
2016-11-22T02:00:13.565Z,18.84
2016-11-22T02:01:13.432Z,18.84
2016-11-22T02:02:12.341Z,18.84
2016-11-22T02:03:11.636Z,18.82
2016-11-22T02:04:12.754Z,18.84
2016-11-22T02:05:13.157Z,18.83
2016-11-22T02:06:12.730Z,18.87
2016-11-22T02:07:12.948Z,18.83
2016-11-22T02:08:12.776Z,18.83
2016-11-22T02:09:12.008Z,18.84
2016-11-22T02:10:12.770Z,18.84
2016-11-22T02:11:13.216Z,18.85
2016-11-22T02:12:13.937Z,18.83
2016-11-22T02:13:12.241Z,18.87
2016-11-22T02:14:12.191Z,18.84
2016-11-22T02:15:12.694Z,18.84
2016-11-22T02:16:13.081Z,18.85
2016-11-22T02:17:12.966Z,18.83
2016-11-22T02:18:12.573Z,18.84
2016-11-22T02:19:12.748Z,18.88
2016-11-22T02:20:13.246Z,18.83
2016-11-22T02:21:13.367Z,18.83
2016-11-22T02:22:13.746Z,18.85
2016-11-22T02:23:12.384Z,18.84
2016-11-22T02:24:13.950Z,18.83
2016-11-22T02:25:12.386Z,18.88
2016-11-22T02:26:12.450Z,18.82
2016-11-22T02:27:13.114Z,18.83
2016-11-22T02:28:13.023Z,18.84
2016-11-22T02:29:12.054Z,18.83
2016-11-22T02:30:12.162Z,18.84
2016-11-22T02:31:12.265Z,18.85
2016-11-22T02:32:12.822Z,18.83
2016-11-22T02:33:12.664Z,18.85
2016-11-22T02:34:12.702Z,18.88
2016-11-22T02:35:11.681Z,18.84
2016-11-22T02:36:12.433Z,18.84
2016-11-22T02:37:12.589Z,18.83
2016-11-22T02:38:11.920Z,18.84
2016-11-22T02:39:14.488Z,18.84
2016-11-22T02:40:13.206Z,18.84
2016-11-22T02:41:12.927Z,18.83
2016-11-22T02:42:10.825Z,18.83
2016-11-22T02:43:13.461Z,19.03
2016-11-22T02:44:12.969Z,18.93
2016-11-22T02:45:12.674Z,18.86
2016-11-22T02:46:11.843Z,18.85
2016-11-22T02:47:12.953Z,18.84
2016-11-22T02:48:12.011Z,18.84
2016-11-22T02:49:12.539Z,18.91
2016-11-22T02:50:12.439Z,18.84
2016-11-22T02:51:12.388Z,18.84
2016-11-22T02:52:13.995Z,18.84
2016-11-22T02:53:12.849Z,18.84
2016-11-22T02:54:13.638Z,18.84
2016-11-22T02:55:12.457Z,18.84
2016-11-22T02:56:12.368Z,18.85
2016-11-22T02:57:10.891Z,18.84
2016-11-22T02:58:13.214Z,18.84
2016-11-22T02:59:12.256Z,18.83
2016-11-22T03:00:12.327Z,18.83
2016-11-22T03:01:14.179Z,18.83
2016-11-22T03:02:12.231Z,18.83
2016-11-22T03:03:13.730Z,18.84
2016-11-22T03:04:12.313Z,18.87
2016-11-22T03:05:13.801Z,18.84
2016-11-22T03:06:11.838Z,18.84
2016-11-22T03:07:13.546Z,18.83
2016-11-22T03:08:11.803Z,18.85
2016-11-22T03:09:12.696Z,18.84
2016-11-22T03:10:11.773Z,18.84
2016-11-22T03:11:11.930Z,18.84
2016-11-22T03:12:13.428Z,18.83
2016-11-22T03:13:12.580Z,18.85
2016-11-22T03:14:13.042Z,18.85
2016-11-22T03:15:12.026Z,18.84
2016-11-22T03:16:12.018Z,18.85
2016-11-22T03:17:12.992Z,18.84
2016-11-22T03:18:12.647Z,18.85
2016-11-22T03:19:12.691Z,18.84
2016-11-22T03:20:12.642Z,18.85
2016-11-22T03:21:12.180Z,18.89
2016-11-22T03:22:12.227Z,18.83
2016-11-22T03:23:12.118Z,18.85
2016-11-22T03:24:12.658Z,18.91
2016-11-22T03:25:12.386Z,18.83
2016-11-22T03:26:13.148Z,18.84
2016-11-22T03:27:13.014Z,18.84
2016-11-22T03:28:14.680Z,18.83
2016-11-22T03:29:12.629Z,18.84
2016-11-22T03:30:12.530Z,18.84
2016-11-22T03:31:12.767Z,18.84
2016-11-22T03:32:12.720Z,18.84
2016-11-22T03:33:12.509Z,18.84
2016-11-22T03:34:10.613Z,18.83
2016-11-22T03:35:12.090Z,18.83
2016-11-22T03:36:14.755Z,18.83
2016-11-22T03:37:13.560Z,18.84
2016-11-22T03:38:11.871Z,18.87
2016-11-22T03:39:11.813Z,18.84
2016-11-22T03:40:13.092Z,18.84
2016-11-22T03:41:12.806Z,18.84
2016-11-22T03:42:11.890Z,18.83
2016-11-22T03:43:12.023Z,18.83
2016-11-22T03:44:11.948Z,18.83
2016-11-22T03:45:10.563Z,18.82
2016-11-22T03:46:12.867Z,18.84
2016-11-22T03:47:11.890Z,18.83
2016-11-22T03:48:11.862Z,18.83
2016-11-22T03:49:12.520Z,18.83
2016-11-22T03:50:12.754Z,18.85
2016-11-22T03:51:12.129Z,18.86
2016-11-22T03:52:12.709Z,18.83
2016-11-22T03:53:11.802Z,18.83
2016-11-22T03:54:12.824Z,18.84
2016-11-22T03:55:11.910Z,18.83
2016-11-22T03:56:12.104Z,18.83
2016-11-22T03:57:12.043Z,18.84
2016-11-22T03:58:12.855Z,18.83
2016-11-22T03:59:11.887Z,18.84
2016-11-22T04:00:11.877Z,18.84
2016-11-22T04:01:12.979Z,18.84
2016-11-22T04:02:12.710Z,18.83
2016-11-22T04:03:12.432Z,18.83
2016-11-22T04:04:12.425Z,18.83
2016-11-22T04:05:12.463Z,18.83
2016-11-22T04:06:12.949Z,18.87
2016-11-22T04:07:12.546Z,19.36
2016-11-22T04:08:12.459Z,19.41
2016-11-22T04:09:12.875Z,19.44
2016-11-22T04:10:13.755Z,19.47
2016-11-22T04:11:12.421Z,19.45
2016-11-22T04:12:13.649Z,19.49
2016-11-22T04:13:12.312Z,18.95
2016-11-22T04:14:13.234Z,18.90
2016-11-22T04:15:12.427Z,18.87
2016-11-22T04:16:12.497Z,18.87
2016-11-22T04:17:11.245Z,18.84
2016-11-22T04:18:12.449Z,18.85
2016-11-22T04:19:12.530Z,18.85
2016-11-22T04:20:12.421Z,18.84
2016-11-22T04:21:13.103Z,18.85
2016-11-22T04:22:12.910Z,18.85
2016-11-22T04:23:11.938Z,18.85
2016-11-22T04:24:13.650Z,18.84
2016-11-22T04:25:12.020Z,18.89
2016-11-22T04:26:12.112Z,18.84
2016-11-22T04:27:12.700Z,18.84
2016-11-22T04:28:11.835Z,18.84
2016-11-22T04:29:12.328Z,18.88
2016-11-22T04:30:12.296Z,18.84
2016-11-22T04:31:12.753Z,18.88
2016-11-22T04:32:11.720Z,18.84
2016-11-22T04:33:11.839Z,18.84
2016-11-22T04:34:11.887Z,18.84
2016-11-22T04:35:11.990Z,18.84
2016-11-22T04:36:12.146Z,18.84
2016-11-22T04:37:20.295Z,18.83
2016-11-22T04:38:12.871Z,18.87
2016-11-22T04:39:12.018Z,19.00
2016-11-22T04:40:12.179Z,18.89
2016-11-22T04:41:13.117Z,18.86
2016-11-22T04:42:12.579Z,18.89
2016-11-22T04:43:12.481Z,18.85
2016-11-22T04:44:13.055Z,18.85
2016-11-22T04:45:13.063Z,18.85
2016-11-22T04:46:13.510Z,18.85
2016-11-22T04:47:13.055Z,18.87
2016-11-22T04:48:13.167Z,18.83
2016-11-22T04:49:13.584Z,18.83
2016-11-22T04:50:11.671Z,18.84
2016-11-22T04:51:11.743Z,18.84
2016-11-22T04:52:11.984Z,18.84
2016-11-22T04:53:13.067Z,18.84
2016-11-22T04:54:14.253Z,18.83
2016-11-22T04:55:14.653Z,18.84
2016-11-22T04:56:13.190Z,18.83
2016-11-22T04:57:12.611Z,18.87
2016-11-22T04:58:12.423Z,18.84
2016-11-22T04:59:12.501Z,18.84
2016-11-22T05:00:12.432Z,18.84
2016-11-22T05:01:13.935Z,18.85
2016-11-22T05:02:11.010Z,18.83
2016-11-22T05:03:12.039Z,19.38
2016-11-22T05:04:13.804Z,19.08
2016-11-22T05:05:12.508Z,18.92
2016-11-22T05:06:13.374Z,18.87
2016-11-22T05:07:12.242Z,18.86
2016-11-22T05:08:12.711Z,18.87
2016-11-22T05:09:11.837Z,18.84
2016-11-22T05:10:12.404Z,18.84
2016-11-22T05:11:12.839Z,18.84
2016-11-22T05:12:10.815Z,18.82
2016-11-22T05:13:13.050Z,19.37
2016-11-22T05:14:12.260Z,19.42
2016-11-22T05:15:13.992Z,19.06
2016-11-22T05:16:12.557Z,18.92
2016-11-22T05:17:12.691Z,18.89
2016-11-22T05:18:11.928Z,18.86
2016-11-22T05:19:12.782Z,18.85
2016-11-22T05:20:13.315Z,18.83
2016-11-22T05:21:12.330Z,18.85
2016-11-22T05:22:12.295Z,18.84
2016-11-22T05:23:13.088Z,18.85
2016-11-22T05:24:12.008Z,18.84
2016-11-22T05:25:23.253Z,18.83
2016-11-22T05:26:13.878Z,18.83
2016-11-22T05:27:11.975Z,18.84
2016-11-22T05:28:12.687Z,18.84
2016-11-22T05:29:13.518Z,18.83
2016-11-22T05:30:13.213Z,18.84
2016-11-22T05:31:12.717Z,18.86
2016-11-22T05:32:13.175Z,19.36
2016-11-22T05:33:12.360Z,19.40
2016-11-22T05:34:12.932Z,19.07
2016-11-22T05:35:12.398Z,18.97
2016-11-22T05:36:12.319Z,18.89
2016-11-22T05:37:14.023Z,18.87
2016-11-22T05:38:12.598Z,18.86
2016-11-22T05:39:12.413Z,18.86
2016-11-22T05:40:13.207Z,18.84
2016-11-22T05:41:12.304Z,18.85
2016-11-22T05:42:12.290Z,18.84
2016-11-22T05:43:13.384Z,18.84
2016-11-22T05:44:12.419Z,18.83
2016-11-22T05:45:13.758Z,18.84
2016-11-22T05:46:12.464Z,18.82
2016-11-22T05:47:13.279Z,18.85
2016-11-22T05:48:12.208Z,18.84
2016-11-22T05:49:13.597Z,18.84
2016-11-22T05:50:12.159Z,18.88
2016-11-22T05:51:12.211Z,18.84
2016-11-22T05:52:13.012Z,18.84
2016-11-22T05:53:12.200Z,18.84
2016-11-22T05:54:12.358Z,18.84
2016-11-22T05:55:12.385Z,18.84
2016-11-22T05:56:13.074Z,18.84
2016-11-22T05:57:10.757Z,18.84
2016-11-22T05:58:12.011Z,18.85
2016-11-22T05:59:12.779Z,18.85
2016-11-22T06:00:11.917Z,18.84
2016-11-22T06:01:13.659Z,18.84
2016-11-22T06:02:12.537Z,18.85
2016-11-22T06:03:12.587Z,18.85
2016-11-22T06:04:13.281Z,18.85
2016-11-22T06:05:12.258Z,18.84
2016-11-22T06:06:12.196Z,18.85
2016-11-22T06:07:12.824Z,18.84
2016-11-22T06:08:13.172Z,18.85
2016-11-22T06:09:13.725Z,18.83
2016-11-22T06:10:12.142Z,18.87
2016-11-22T06:11:12.630Z,18.83
2016-11-22T06:12:11.952Z,18.84
2016-11-22T06:13:12.131Z,18.83
2016-11-22T06:14:12.208Z,18.85
2016-11-22T06:15:12.112Z,18.84
2016-11-22T06:16:13.584Z,18.83
2016-11-22T06:17:11.866Z,18.84
2016-11-22T06:18:12.591Z,18.90
2016-11-22T06:19:12.269Z,18.83
2016-11-22T06:20:13.960Z,18.83
2016-11-22T06:21:10.676Z,18.83
2016-11-22T06:22:11.919Z,18.84
2016-11-22T06:23:13.751Z,18.84
2016-11-22T06:24:11.926Z,18.83
2016-11-22T06:25:11.931Z,18.83
2016-11-22T06:26:12.964Z,18.84
2016-11-22T06:27:12.096Z,18.84
2016-11-22T06:28:12.236Z,18.84
2016-11-22T06:29:12.379Z,18.84
2016-11-22T06:30:13.330Z,18.83
2016-11-22T06:31:12.693Z,18.87
2016-11-22T06:32:11.834Z,18.84
2016-11-22T06:33:11.898Z,18.83
2016-11-22T06:34:11.972Z,18.84
2016-11-22T06:35:11.954Z,18.84
2016-11-22T06:36:11.992Z,18.83
2016-11-22T06:37:12.190Z,18.83
2016-11-22T06:38:13.194Z,18.84
2016-11-22T06:39:13.907Z,18.84
2016-11-22T06:40:12.256Z,18.90
2016-11-22T06:41:12.944Z,18.83
2016-11-22T06:42:12.401Z,18.89
2016-11-22T06:43:13.143Z,18.84
2016-11-22T06:44:12.312Z,18.83
2016-11-22T06:45:12.213Z,18.84
2016-11-22T06:46:12.764Z,18.88
2016-11-22T06:47:11.732Z,19.38
2016-11-22T06:48:12.354Z,19.45
2016-11-22T06:49:12.974Z,19.13
2016-11-22T06:50:12.164Z,18.99
2016-11-22T06:51:11.991Z,18.94
2016-11-22T06:52:12.116Z,18.93
2016-11-22T06:53:12.522Z,18.94
2016-11-22T06:54:14.064Z,18.90
2016-11-22T06:55:12.642Z,18.96
2016-11-22T06:56:13.403Z,18.91
2016-11-22T06:57:13.242Z,18.91
2016-11-22T06:58:17.859Z,18.90
2016-11-22T06:59:11.855Z,18.91
2016-11-22T07:00:12.539Z,18.91
2016-11-22T07:01:11.219Z,18.91
2016-11-22T07:02:13.087Z,18.91
2016-11-22T07:03:12.694Z,18.91
2016-11-22T07:04:12.400Z,18.91
2016-11-22T07:05:12.911Z,18.91
2016-11-22T07:06:14.134Z,18.92
2016-11-22T07:07:12.779Z,18.92
2016-11-22T07:08:12.439Z,18.91
2016-11-22T07:09:12.994Z,18.97
2016-11-22T07:10:11.995Z,18.92
2016-11-22T07:11:12.063Z,18.91
2016-11-22T07:12:10.920Z,18.91
2016-11-22T07:13:11.858Z,19.44
2016-11-22T07:14:11.870Z,19.50
2016-11-22T07:15:13.319Z,19.53
2016-11-22T07:16:12.910Z,19.53
2016-11-22T07:17:13.833Z,19.04
2016-11-22T07:18:10.778Z,18.97
2016-11-22T07:19:10.482Z,19.50
2016-11-22T07:20:12.303Z,19.56
2016-11-22T07:21:14.356Z,19.56
2016-11-22T07:22:12.289Z,19.59
2016-11-22T07:23:13.161Z,19.60
2016-11-22T07:24:12.049Z,19.61
2016-11-22T07:25:17.662Z,19.63
2016-11-22T07:26:12.426Z,19.62
2016-11-22T07:27:13.029Z,19.61
2016-11-22T07:28:12.814Z,19.61
2016-11-22T07:29:11.955Z,19.60
2016-11-22T07:30:11.895Z,19.10
2016-11-22T07:31:11.918Z,19.05
2016-11-22T07:32:12.716Z,19.02
2016-11-22T07:33:11.879Z,19.00
2016-11-22T07:34:12.608Z,18.99
2016-11-22T07:35:11.600Z,18.98
2016-11-22T07:36:12.877Z,18.94
2016-11-22T07:37:12.572Z,18.93
2016-11-22T07:38:12.503Z,18.89
2016-11-22T07:39:12.563Z,18.86
2016-11-22T07:40:12.591Z,18.85
2016-11-22T07:41:10.656Z,18.83
2016-11-22T07:42:09.054Z,19.33
2016-11-22T07:43:12.871Z,18.88
2016-11-22T07:44:14.439Z,18.82
2016-11-22T07:45:13.136Z,18.77
2016-11-22T07:46:12.087Z,17.70
2016-11-22T07:47:12.047Z,16.88
2016-11-22T07:48:12.112Z,16.35
2016-11-22T07:49:12.716Z,16.41
2016-11-22T07:50:11.820Z,16.46
2016-11-22T07:51:12.384Z,16.79
2016-11-22T07:52:12.467Z,17.06
2016-11-22T07:53:13.098Z,17.32
2016-11-22T07:54:12.108Z,17.55
2016-11-22T07:55:13.899Z,17.74
2016-11-22T07:56:12.616Z,17.89
2016-11-22T07:57:12.242Z,18.03
2016-11-22T07:58:12.080Z,18.16
2016-11-22T07:59:12.158Z,18.26
2016-11-22T08:00:12.869Z,18.34
2016-11-22T08:01:13.608Z,18.42
2016-11-22T08:02:11.641Z,18.49
2016-11-22T08:03:10.621Z,18.53
2016-11-22T08:04:12.509Z,18.59
2016-11-22T08:05:13.046Z,18.63
2016-11-22T08:06:12.484Z,18.67
2016-11-22T08:07:11.413Z,18.69
2016-11-22T08:08:11.699Z,18.70
2016-11-22T08:09:11.890Z,18.73
2016-11-22T08:10:13.707Z,18.74
2016-11-22T08:11:12.339Z,18.79
2016-11-22T08:12:12.861Z,18.85
2016-11-22T08:13:11.904Z,18.81
2016-11-22T08:14:11.962Z,18.75
2016-11-22T08:15:12.534Z,18.77
2016-11-22T08:16:13.947Z,18.80
2016-11-22T08:17:12.748Z,18.76
2016-11-22T08:18:17.239Z,18.76
2016-11-22T08:19:10.977Z,18.74
2016-11-22T08:20:10.698Z,18.73
2016-11-22T08:21:12.685Z,19.27
2016-11-22T08:22:17.424Z,19.33
2016-11-22T08:23:12.606Z,19.06
2016-11-22T08:24:12.255Z,18.87
2016-11-22T08:25:12.338Z,18.83
2016-11-22T08:26:12.765Z,18.85
2016-11-22T08:27:12.301Z,18.85
2016-11-22T08:28:12.309Z,18.81
2016-11-22T08:29:12.945Z,18.81
2016-11-22T08:30:11.965Z,18.82
2016-11-22T08:31:12.557Z,18.80
2016-11-22T08:32:12.897Z,18.85
2016-11-22T08:33:12.488Z,18.85
2016-11-22T08:34:11.291Z,18.80
2016-11-22T08:35:12.379Z,19.34
2016-11-22T08:36:12.842Z,19.40
2016-11-22T08:37:12.768Z,19.44
2016-11-22T08:38:12.514Z,19.45
2016-11-22T08:39:11.505Z,19.11
2016-11-22T08:40:12.789Z,18.98
2016-11-22T08:41:18.085Z,18.90
2016-11-22T08:42:12.229Z,18.89
2016-11-22T08:43:12.197Z,18.88
2016-11-22T08:44:11.087Z,18.88
2016-11-22T08:45:12.834Z,18.87
2016-11-22T08:46:12.388Z,18.88
2016-11-22T08:47:12.282Z,18.88
2016-11-22T08:48:12.342Z,18.88
2016-11-22T08:49:13.135Z,18.90
2016-11-22T08:50:12.027Z,18.89
2016-11-22T08:51:12.079Z,18.89
2016-11-22T08:52:12.714Z,18.90
2016-11-22T08:53:14.907Z,18.90
2016-11-22T08:54:12.052Z,18.90
2016-11-22T08:55:11.644Z,18.89
2016-11-22T08:56:11.909Z,18.90
2016-11-22T08:57:12.342Z,18.89
2016-11-22T08:58:12.793Z,18.87
2016-11-22T08:59:11.868Z,18.88
2016-11-22T09:00:12.683Z,18.90
2016-11-22T09:01:12.120Z,18.93
2016-11-22T09:02:10.569Z,18.90
2016-11-22T09:03:12.512Z,18.92
2016-11-22T09:04:13.025Z,18.92
2016-11-22T09:05:12.211Z,18.94
2016-11-22T09:06:13.323Z,18.96
2016-11-22T09:07:13.012Z,18.95
2016-11-22T09:08:12.004Z,18.97
2016-11-22T09:09:12.829Z,18.97
2016-11-22T09:10:10.595Z,18.98
2016-11-22T09:11:14.688Z,18.97
2016-11-22T09:12:10.175Z,18.96
2016-11-22T09:13:12.965Z,19.48
2016-11-22T09:14:12.566Z,19.55
2016-11-22T09:15:13.104Z,19.58
2016-11-22T09:16:12.202Z,19.61
2016-11-22T09:17:12.449Z,19.69
2016-11-22T09:18:12.918Z,19.44
2016-11-22T09:19:12.940Z,19.21
2016-11-22T09:20:12.154Z,19.14
2016-11-22T09:21:12.337Z,19.11
2016-11-22T09:22:12.229Z,19.14
2016-11-22T09:23:12.119Z,19.13
2016-11-22T09:24:12.648Z,19.13
2016-11-22T09:25:13.728Z,19.14
2016-11-22T09:26:11.747Z,19.14
2016-11-22T09:27:13.645Z,19.14
2016-11-22T09:28:11.830Z,19.14
2016-11-22T09:29:12.373Z,19.21
2016-11-22T09:30:12.366Z,19.14
2016-11-22T09:31:12.979Z,19.20
2016-11-22T09:32:12.646Z,19.15
2016-11-22T09:33:13.523Z,19.15
2016-11-22T09:34:10.204Z,19.15
2016-11-22T09:35:11.574Z,19.17
2016-11-22T09:36:11.679Z,19.17
2016-11-22T09:37:12.636Z,19.18
2016-11-22T09:38:13.335Z,19.18
2016-11-22T09:39:12.450Z,19.18
2016-11-22T09:40:13.004Z,19.18
2016-11-22T09:41:12.576Z,19.22
2016-11-22T09:42:12.270Z,19.19
2016-11-22T09:43:12.765Z,19.22
2016-11-22T09:44:11.729Z,19.20
2016-11-22T09:45:12.005Z,19.25
2016-11-22T09:46:10.481Z,19.20
2016-11-22T09:47:11.717Z,19.75
2016-11-22T09:48:13.278Z,19.80
2016-11-22T09:49:12.254Z,19.30
2016-11-22T09:50:19.298Z,19.25
2016-11-22T09:51:12.899Z,19.24
2016-11-22T09:52:12.168Z,19.23
2016-11-22T09:53:12.662Z,19.26
2016-11-22T09:54:11.906Z,19.23
2016-11-22T09:55:12.664Z,19.23
2016-11-22T09:56:11.749Z,19.25
2016-11-22T09:57:11.739Z,19.26
2016-11-22T09:58:14.359Z,19.24
2016-11-22T09:59:12.458Z,19.24
2016-11-22T10:00:12.604Z,19.24
2016-11-22T10:01:11.640Z,19.24
2016-11-22T10:02:12.202Z,19.24
2016-11-22T10:03:12.136Z,19.24
2016-11-22T10:04:12.769Z,19.26
2016-11-22T10:05:10.488Z,19.24
2016-11-22T10:06:12.282Z,19.25
2016-11-22T10:07:12.893Z,19.28
2016-11-22T10:08:12.261Z,19.28
2016-11-22T10:09:12.665Z,19.26
2016-11-22T10:10:11.807Z,19.22
2016-11-22T10:11:10.896Z,19.21
2016-11-22T10:12:12.528Z,19.21
2016-11-22T10:13:10.635Z,19.20
2016-11-22T10:14:10.778Z,19.20
2016-11-22T10:15:12.863Z,19.73
2016-11-22T10:16:12.015Z,19.81
2016-11-22T10:17:12.070Z,19.85
2016-11-22T10:18:10.764Z,19.86
2016-11-22T10:19:12.503Z,19.52
2016-11-22T10:20:12.466Z,19.34
2016-11-22T10:21:12.432Z,19.30
2016-11-22T10:22:13.098Z,19.32
2016-11-22T10:23:12.629Z,19.27
2016-11-22T10:24:12.229Z,19.30
2016-11-22T10:25:12.768Z,19.26
2016-11-22T10:26:14.463Z,19.27
2016-11-22T10:27:13.169Z,19.26
2016-11-22T10:28:12.104Z,19.27
2016-11-22T10:29:12.115Z,19.27
2016-11-22T10:30:13.536Z,19.28
2016-11-22T10:31:11.243Z,19.27
2016-11-22T10:32:12.976Z,19.28
2016-11-22T10:33:12.660Z,19.28
2016-11-22T10:34:11.777Z,19.29
2016-11-22T10:35:11.824Z,19.28
2016-11-22T10:36:11.879Z,19.27
2016-11-22T10:37:10.552Z,19.22
2016-11-22T10:38:12.433Z,19.24
2016-11-22T10:39:14.090Z,19.19
2016-11-22T10:40:18.492Z,19.18
2016-11-22T10:41:14.308Z,19.17
2016-11-22T10:42:14.091Z,19.15
2016-11-22T10:43:13.731Z,19.16
2016-11-22T10:44:13.805Z,19.14
2016-11-22T10:45:11.939Z,19.13
2016-11-22T10:46:12.140Z,19.13
2016-11-22T10:47:12.103Z,19.12
2016-11-22T10:48:12.238Z,19.12
2016-11-22T10:49:12.882Z,19.13
2016-11-22T10:50:13.745Z,19.12
2016-11-22T10:51:12.499Z,19.13
2016-11-22T10:52:14.200Z,19.12
2016-11-22T10:53:12.255Z,19.13
2016-11-22T10:54:12.958Z,19.13
2016-11-22T10:55:12.084Z,19.14
2016-11-22T10:56:12.020Z,19.14
2016-11-22T10:57:12.517Z,19.14
2016-11-22T10:58:10.688Z,19.14
2016-11-22T10:59:12.911Z,19.19
2016-11-22T11:00:11.869Z,19.16
2016-11-22T11:01:12.374Z,19.23
2016-11-22T11:02:12.250Z,19.17
2016-11-22T11:03:12.954Z,19.18
2016-11-22T11:04:12.785Z,19.18
2016-11-22T11:05:12.531Z,19.16
2016-11-22T11:06:11.439Z,19.16
2016-11-22T11:07:14.235Z,19.16
2016-11-22T11:08:12.809Z,19.15
2016-11-22T11:09:12.060Z,19.16
2016-11-22T11:10:19.806Z,19.16
2016-11-22T11:11:10.724Z,19.17
2016-11-22T11:12:11.816Z,19.71
2016-11-22T11:13:11.796Z,19.76
2016-11-22T11:14:11.876Z,19.79
2016-11-22T11:15:12.407Z,19.50
2016-11-22T11:16:11.319Z,19.25
2016-11-22T11:17:13.904Z,19.75
2016-11-22T11:18:12.375Z,19.27
2016-11-22T11:19:13.340Z,19.75
2016-11-22T11:20:12.400Z,19.78
2016-11-22T11:21:13.002Z,19.80
2016-11-22T11:22:12.056Z,19.80
2016-11-22T11:23:12.101Z,19.80
2016-11-22T11:24:12.609Z,19.81
2016-11-22T11:25:11.640Z,19.80
2016-11-22T11:26:14.224Z,19.81
2016-11-22T11:27:12.307Z,19.81
2016-11-22T11:28:13.052Z,19.82
2016-11-22T11:29:13.615Z,19.82
2016-11-22T11:30:13.949Z,19.82
2016-11-22T11:31:12.019Z,19.81
2016-11-22T11:32:12.845Z,19.82
2016-11-22T11:33:10.526Z,19.81
2016-11-22T11:34:12.161Z,19.33
2016-11-22T11:35:10.844Z,19.22
2016-11-22T11:36:10.765Z,19.19
2016-11-22T11:37:12.247Z,19.35
2016-11-22T11:38:12.938Z,19.21
2016-11-22T11:39:10.905Z,19.20
2016-11-22T11:40:13.612Z,19.72
2016-11-22T11:41:12.409Z,19.78
2016-11-22T11:42:14.081Z,19.39
2016-11-22T11:43:12.134Z,19.25
2016-11-22T11:44:12.507Z,19.24
2016-11-22T11:45:11.929Z,19.23
2016-11-22T11:46:12.489Z,19.18
2016-11-22T11:47:11.323Z,19.17
2016-11-22T11:48:12.400Z,19.71
2016-11-22T11:49:13.212Z,19.77
2016-11-22T11:50:12.213Z,19.77
2016-11-22T11:51:12.064Z,19.80
2016-11-22T11:52:12.180Z,19.48
2016-11-22T11:53:12.488Z,19.29
2016-11-22T11:54:13.167Z,19.22
2016-11-22T11:55:12.114Z,19.19
2016-11-22T11:56:12.861Z,19.18
2016-11-22T11:57:13.505Z,19.17
2016-11-22T11:58:12.978Z,19.21
2016-11-22T11:59:12.079Z,19.17
2016-11-22T12:00:12.589Z,19.21
2016-11-22T12:01:11.527Z,19.17
2016-11-22T12:02:12.986Z,19.17
2016-11-22T12:03:12.140Z,19.16
2016-11-22T12:04:12.638Z,19.21
2016-11-22T12:05:11.558Z,19.16
2016-11-22T12:06:11.567Z,19.15
2016-11-22T12:07:13.158Z,19.16
2016-11-22T12:08:12.227Z,19.16
2016-11-22T12:09:12.236Z,19.16
2016-11-22T12:10:12.832Z,19.16
2016-11-22T12:11:13.638Z,19.16
2016-11-22T12:12:11.634Z,19.17
2016-11-22T12:13:12.060Z,19.22
2016-11-22T12:14:12.003Z,19.16
2016-11-22T12:15:13.015Z,19.16
2016-11-22T12:16:14.487Z,19.16
2016-11-22T12:17:14.471Z,19.16
2016-11-22T12:18:12.843Z,19.21
2016-11-22T12:19:09.858Z,19.16
2016-11-22T12:20:11.840Z,19.69
2016-11-22T12:21:12.370Z,19.75
2016-11-22T12:22:13.286Z,19.77
2016-11-22T12:23:12.379Z,19.25
2016-11-22T12:24:11.199Z,19.20
2016-11-22T12:25:19.428Z,19.20
2016-11-22T12:26:13.275Z,19.18
2016-11-22T12:27:12.262Z,19.18
2016-11-22T12:28:12.955Z,19.17
2016-11-22T12:29:12.400Z,19.22
2016-11-22T12:30:12.186Z,19.18
2016-11-22T12:31:12.793Z,19.19
2016-11-22T12:32:11.837Z,19.17
2016-11-22T12:33:11.968Z,19.17
2016-11-22T12:34:12.010Z,19.17
2016-11-22T12:35:13.691Z,19.17
2016-11-22T12:36:11.758Z,19.17
2016-11-22T12:37:12.884Z,19.18
2016-11-22T12:38:12.265Z,19.22
2016-11-22T12:39:12.290Z,19.18
2016-11-22T12:40:13.048Z,19.17
2016-11-22T12:41:14.479Z,19.18
2016-11-22T12:42:12.987Z,19.18
2016-11-22T12:43:13.720Z,19.17
2016-11-22T12:44:12.084Z,19.23
2016-11-22T12:45:12.058Z,19.17
2016-11-22T12:46:12.457Z,19.20
2016-11-22T12:47:12.482Z,19.17
2016-11-22T12:48:12.384Z,19.17
2016-11-22T12:49:12.189Z,19.17
2016-11-22T12:50:12.102Z,19.17
2016-11-22T12:51:13.649Z,19.17
2016-11-22T12:52:12.284Z,19.21